Time;durP1;ratioP1;P1;durP2;ratioP2;P2;SDS_P1;SDS_P2;PMS_P1;PMS_P2;Temp;Humidity;BMP_temperature;BMP_pressure;BME280_temperature;BME280_humidity;BME280_pressure;Samples;Min_cycle;Max_cycle;Signal;HPM_P1;HPM_P2
2021/06/15 00:01:14;;;;;;;2.88;0.73;;;;;;;17.00;57.50;99681.00;5016147;28;20044;-67
2021/06/15 00:03:40;;;;;;;1.33;0.85;;;;;;;16.99;57.54;99682.84;5013472;28;20030;-67
2021/06/15 00:06:05;;;;;;;3.15;1.13;;;;;;;16.88;57.45;99678.13;5008212;28;20030;-67
2021/06/15 00:08:31;;;;;;;1.98;0.90;;;;;;;16.92;57.53;99672.16;5011428;28;20045;-67
2021/06/15 00:10:56;;;;;;;4.35;1.10;;;;;;;16.89;57.59;99680.59;5008072;28;20094;-67
2021/06/15 00:13:22;;;;;;;1.95;1.08;;;;;;;16.89;57.63;99683.25;5009642;28;20026;-67
2021/06/15 00:15:48;;;;;;;2.03;1.02;;;;;;;16.94;57.71;99684.50;5012093;28;20269;-67
2021/06/15 00:18:15;;;;;;;2.05;1.10;;;;;;;16.78;57.73;99673.16;5015962;28;20252;-67
2021/06/15 00:20:42;;;;;;;2.15;1.13;;;;;;;16.73;58.27;99672.94;5014542;28;20022;-67
2021/06/15 00:23:07;;;;;;;1.45;1.00;;;;;;;16.70;58.52;99676.03;5004519;28;20106;-67
2021/06/15 00:25:33;;;;;;;2.88;1.13;;;;;;;16.75;58.29;99686.13;5003844;28;20034;-67
2021/06/15 00:27:58;;;;;;;2.58;1.10;;;;;;;16.69;58.54;99681.59;5013003;28;20366;-67
2021/06/15 00:30:24;;;;;;;2.92;1.30;;;;;;;16.73;58.90;99680.16;5011354;28;20201;-67
2021/06/15 00:32:51;;;;;;;3.45;1.27;;;;;;;16.82;58.44;99686.94;5010097;28;20405;-67
2021/06/15 00:35:17;;;;;;;2.92;1.17;;;;;;;16.76;58.98;99685.09;5014572;28;20057;-67
2021/06/15 00:37:43;;;;;;;5.70;1.40;;;;;;;16.75;58.95;99683.44;5011480;28;20033;-67
2021/06/15 00:40:09;;;;;;;4.35;1.50;;;;;;;16.64;59.15;99690.16;5008582;28;20059;-66
2021/06/15 00:42:35;;;;;;;3.22;1.52;;;;;;;16.62;59.63;99678.84;4989747;28;20033;-66
2021/06/15 00:45:00;;;;;;;5.53;1.55;;;;;;;16.45;60.22;99666.88;5014940;28;20044;-66
2021/06/15 00:47:26;;;;;;;3.17;1.67;;;;;;;16.48;60.29;99672.63;5007950;28;20033;-67
2021/06/15 00:49:54;;;;;;;3.83;1.55;;;;;;;16.41;60.58;99673.66;5021997;28;20373;-66
2021/06/15 00:52:20;;;;;;;1.83;1.17;;;;;;;16.26;60.98;99679.97;5023216;28;20099;-66
2021/06/15 00:54:46;;;;;;;1.95;1.27;;;;;;;16.33;61.24;99689.84;5013290;28;20050;-66
2021/06/15 00:57:17;;;;;;;6.35;2.40;;;;;;;16.32;61.08;99685.53;5015448;28;20037;-66
2021/06/15 00:59:43;;;;;;;5.30;2.35;;;;;;;16.17;61.99;99685.69;5013011;28;20027;-66
2021/06/15 01:02:09;;;;;;;5.40;2.55;;;;;;;16.23;61.78;99692.91;5007968;28;20085;-67
2021/06/15 01:04:34;;;;;;;5.03;2.78;;;;;;;16.17;61.96;99686.50;5007324;28;20019;-66
2021/06/15 01:07:12;;;;;;;7.97;2.78;;;;;;;16.18;62.57;99682.00;5008730;28;20233;-67
2021/06/15 01:10:05;;;;;;;6.13;2.80;;;;;;;16.26;61.99;99687.97;5013449;28;21294;-67
2021/06/15 01:12:39;;;;;;;7.53;2.80;;;;;;;16.18;62.26;99682.81;5018545;28;20037;-66
2021/06/15 01:15:14;;;;;;;5.07;2.80;;;;;;;16.13;62.37;99703.13;5012975;28;20029;-67
2021/06/15 01:17:49;;;;;;;7.13;2.95;;;;;;;16.25;62.10;99694.34;5012314;28;20097;-66
2021/06/15 01:20:25;;;;;;;5.50;3.08;;;;;;;16.11;62.39;99679.28;5009134;28;20034;-67
2021/06/15 01:23:02;;;;;;;6.05;3.10;;;;;;;16.12;62.34;99693.47;5007486;28;20316;-66
2021/06/15 01:26:14;;;;;;;6.55;3.47;;;;;;;16.01;62.69;99686.03;5011254;28;20028;-66
2021/06/15 01:28:56;;;;;;;5.72;2.67;;;;;;;16.11;62.31;99684.63;5010759;28;20069;-66
2021/06/15 01:31:25;;;;;;;9.15;3.00;;;;;;;16.05;62.35;99696.13;5011763;28;20248;-67
2021/06/15 01:33:58;;;;;;;5.22;2.53;;;;;;;16.02;62.38;99691.19;5015708;28;20045;-67
2021/06/15 01:36:36;;;;;;;6.35;2.47;;;;;;;16.04;62.28;99685.63;5021835;28;20109;-67
2021/06/15 01:39:08;;;;;;;6.35;3.45;;;;;;;16.24;61.31;99684.69;5023310;28;20048;-66
2021/06/15 01:41:39;;;;;;;7.15;2.40;;;;;;;16.34;60.72;99683.50;5023368;28;20101;-66
2021/06/15 01:44:09;;;;;;;4.10;2.33;;;;;;;16.36;60.17;99695.63;5023377;28;20479;-67
2021/06/15 01:46:42;;;;;;;7.63;2.20;;;;;;;16.36;59.91;99692.94;5020485;28;20036;-66
2021/06/15 01:49:14;;;;;;;3.53;2.40;;;;;;;16.37;60.03;99688.44;4993770;28;20030;-67
2021/06/15 01:51:41;;;;;;;3.70;2.33;;;;;;;16.34;60.09;99686.97;5011936;28;20026;-67
2021/06/15 01:54:11;;;;;;;5.40;2.30;;;;;;;16.33;59.95;99687.19;5019150;28;20025;-67
2021/06/15 01:56:41;;;;;;;4.25;2.20;;;;;;;16.30;60.01;99685.75;5021722;28;20064;-66
2021/06/15 01:59:08;;;;;;;2.80;1.50;;;;;;;16.34;59.58;99683.50;5012740;28;20199;-67
2021/06/15 02:01:38;;;;;;;3.65;2.00;;;;;;;16.13;60.38;99679.91;5007505;28;20045;-67
2021/06/15 02:04:06;;;;;;;3.72;2.42;;;;;;;16.14;60.14;99681.56;5010769;28;20311;-67
2021/06/15 02:06:34;;;;;;;2.40;1.33;;;;;;;16.21;60.31;99689.59;5010186;28;20093;-66
2021/06/15 02:09:04;;;;;;;2.72;1.45;;;;;;;16.35;59.80;99693.16;5003888;28;20053;-66
2021/06/15 02:11:32;;;;;;;5.85;1.50;;;;;;;16.47;59.26;99687.03;5002902;28;20122;-66
2021/06/15 02:14:01;;;;;;;4.70;1.40;;;;;;;16.42;59.39;99688.66;5001383;28;20045;-66
2021/06/15 02:16:28;;;;;;;2.25;1.25;;;;;;;16.34;59.84;99691.50;5009859;28;20030;-66
2021/06/15 02:18:56;;;;;;;2.53;1.23;;;;;;;16.33;59.76;99689.84;5007810;28;20030;-66
2021/06/15 02:21:22;;;;;;;4.60;1.30;;;;;;;16.37;59.72;99683.09;5001935;28;20064;-66
2021/06/15 02:23:50;;;;;;;2.35;1.00;;;;;;;16.35;59.71;99691.31;5001139;28;20296;-66
2021/06/15 02:26:19;;;;;;;2.05;1.20;;;;;;;16.30;60.17;99688.41;5017215;28;20274;-66
2021/06/15 02:28:45;;;;;;;2.22;1.60;;;;;;;16.34;59.69;99691.50;5011823;28;20321;-66
2021/06/15 02:31:15;;;;;;;2.10;1.20;;;;;;;16.26;59.97;99701.34;5012814;28;20037;-66
2021/06/15 02:33:47;;;;;;;4.75;1.27;;;;;;;16.38;59.96;99698.91;5012941;28;20025;-66
2021/06/15 02:36:22;;;;;;;2.08;1.30;;;;;;;16.44;59.58;99698.13;5010664;28;20039;-66
2021/06/15 02:38:53;;;;;;;7.78;1.40;;;;;;;16.26;60.01;99673.81;5001850;28;20052;-66
2021/06/15 02:41:20;;;;;;;6.55;1.20;;;;;;;16.57;59.52;99702.69;5001730;28;20044;-66
2021/06/15 02:43:49;;;;;;;3.50;1.30;;;;;;;16.50;59.42;99701.84;5006197;28;20038;-66
2021/06/15 02:46:17;;;;;;;3.75;1.10;;;;;;;16.39;59.71;99697.06;5010990;28;20094;-66
2021/06/15 02:48:49;;;;;;;1.80;1.10;;;;;;;16.30;60.19;99707.13;5005563;28;20327;-66
2021/06/15 02:51:16;;;;;;;3.13;1.23;;;;;;;16.29;60.04;99706.28;5003118;28;20335;-66
2021/06/15 02:53:47;;;;;;;5.97;1.73;;;;;;;16.33;60.02;99709.38;5015118;28;20069;-66
2021/06/15 02:56:17;;;;;;;2.78;1.20;;;;;;;16.28;60.13;99709.97;5008038;28;20212;-66
2021/06/15 02:58:47;;;;;;;3.08;1.25;;;;;;;16.28;59.99;99699.28;5009513;28;20324;-66
2021/06/15 03:01:12;;;;;;;4.32;1.50;;;;;;;16.21;60.23;99693.09;5001466;28;20042;-66
2021/06/15 03:03:39;;;;;;;2.50;1.52;;;;;;;16.18;60.62;99700.69;5001358;28;20051;-66
2021/06/15 03:06:05;;;;;;;3.97;1.50;;;;;;;16.22;60.32;99704.63;5005712;28;20038;-66
2021/06/15 03:08:32;;;;;;;4.47;1.63;;;;;;;16.27;60.49;99712.84;5009064;28;20053;-66
2021/06/15 03:10:58;;;;;;;3.85;1.70;;;;;;;16.21;60.73;99710.97;5010618;28;20048;-66
2021/06/15 03:13:35;;;;;;;3.03;1.33;;;;;;;16.43;60.50;99701.81;5009467;28;20050;-66
2021/06/15 03:16:03;;;;;;;8.38;2.13;;;;;;;16.39;60.40;99702.41;5009015;28;20082;-66
2021/06/15 03:18:44;;;;;;;2.28;1.40;;;;;;;16.35;60.61;99711.84;5012318;28;20037;-66
2021/06/15 03:21:13;;;;;;;7.78;2.10;;;;;;;16.40;60.63;99709.41;5010211;28;20258;-66
2021/06/15 03:23:53;;;;;;;3.70;1.55;;;;;;;16.28;61.07;99706.50;5009373;28;20089;-66
2021/06/15 03:26:27;;;;;;;2.75;1.58;;;;;;;16.28;60.68;99711.84;5010140;28;20023;-66
2021/06/15 03:28:58;;;;;;;5.55;1.73;;;;;;;16.39;60.53;99708.59;5009313;28;20029;-66
2021/06/15 03:31:26;;;;;;;2.10;1.33;;;;;;;16.47;60.53;99715.59;5016670;28;20302;-66
2021/06/15 03:33:55;;;;;;;4.82;1.83;;;;;;;16.54;60.34;99719.13;5006366;28;20291;-66
2021/06/15 03:36:23;;;;;;;2.35;1.45;;;;;;;16.49;60.20;99732.25;5005385;28;20023;-66
2021/06/15 03:38:50;;;;;;;3.70;1.60;;;;;;;16.46;60.41;99729.97;5016188;28;20316;-66
2021/06/15 03:41:17;;;;;;;7.40;1.70;;;;;;;16.43;60.48;99741.06;5023023;28;20026;-66
2021/06/15 03:44:03;;;;;;;3.92;1.77;;;;;;;16.37;60.49;99734.69;5014922;28;20295;-66
2021/06/15 03:46:32;;;;;;;4.88;2.38;;;;;;;16.49;60.48;99735.75;5009259;28;20026;-66
2021/06/15 03:49:00;;;;;;;4.60;1.70;;;;;;;16.53;60.12;99722.81;5012440;28;20033;-66
2021/06/15 03:51:31;;;;;;;3.28;1.35;;;;;;;16.66;60.19;99736.28;5005725;28;20052;-66
2021/06/15 03:54:06;;;;;;;5.63;1.55;;;;;;;16.78;60.01;99739.19;5014472;28;20041;-66
2021/06/15 03:56:47;;;;;;;3.42;1.70;;;;;;;16.80;59.57;99735.28;5006913;28;20273;-66
2021/06/15 03:59:18;;;;;;;4.07;1.95;;;;;;;16.81;59.47;99723.56;5010332;28;20196;-66
2021/06/15 04:01:45;;;;;;;10.00;2.10;;;;;;;16.80;59.54;99718.41;5009254;28;20081;-66
2021/06/15 04:04:15;;;;;;;3.13;1.70;;;;;;;16.87;59.37;99714.72;5015651;28;20038;-66
2021/06/15 04:06:46;;;;;;;6.80;1.95;;;;;;;16.77;59.78;99703.59;5007449;28;20251;-66
2021/06/15 04:09:13;;;;;;;3.30;1.88;;;;;;;16.79;59.25;99703.41;5014149;28;20042;-66
2021/06/15 04:11:40;;;;;;;2.80;1.88;;;;;;;16.99;59.58;99720.31;5012153;28;20205;-66
2021/06/15 04:14:09;;;;;;;6.57;1.63;;;;;;;17.06;59.36;99725.66;5015882;28;20034;-66
2021/06/15 04:16:36;;;;;;;3.63;1.67;;;;;;;17.11;58.69;99721.34;5013645;28;20033;-66
2021/06/15 04:19:04;;;;;;;6.57;1.98;;;;;;;17.22;58.49;99723.41;5008011;28;20035;-66
2021/06/15 04:21:34;;;;;;;2.88;1.58;;;;;;;17.39;58.50;99726.50;5005782;28;20026;-66
2021/06/15 04:24:06;;;;;;;3.88;2.03;;;;;;;17.61;57.31;99726.25;5003762;28;20224;-66
2021/06/15 04:26:34;;;;;;;5.22;1.75;;;;;;;17.85;56.82;99733.69;5002713;28;20038;-66
2021/06/15 04:29:03;;;;;;;10.10;2.05;;;;;;;17.81;56.73;99730.63;5004185;28;20045;-66
2021/06/15 04:31:29;;;;;;;6.05;1.80;;;;;;;17.87;56.44;99734.31;5011898;28;20041;-66
2021/06/15 04:33:57;;;;;;;5.45;1.80;;;;;;;17.82;56.64;99734.13;5007664;28;20080;-66
2021/06/15 04:36:22;;;;;;;4.93;1.67;;;;;;;17.74;57.04;99737.03;5017698;28;20029;-66
2021/06/15 04:38:58;;;;;;;4.47;1.63;;;;;;;17.68;56.87;99741.31;5011418;28;20022;-66
2021/06/15 04:41:34;;;;;;;5.93;1.80;;;;;;;17.74;57.04;99745.88;5011616;28;20261;-66
2021/06/15 04:46:25;;;;;;;11.75;1.60;;;;;;;17.79;57.39;99754.09;5140562;27;20128;-66
2021/06/15 04:49:14;;;;;;;8.30;2.28;;;;;;;17.94;57.10;99759.22;5127033;28;20335;-66
2021/06/15 04:51:40;;;;;;;3.63;1.65;;;;;;;18.06;56.33;99757.56;5129332;28;20046;-66
2021/06/15 04:54:09;;;;;;;3.92;1.65;;;;;;;18.10;56.49;99760.63;5133831;28;20031;-67
2021/06/15 04:56:35;;;;;;;4.78;1.60;;;;;;;18.09;57.12;99757.13;5133036;28;20345;-66
2021/06/15 04:59:02;;;;;;;9.35;2.22;;;;;;;18.17;56.54;99753.41;5139575;27;20022;-66
2021/06/15 05:01:29;;;;;;;2.88;1.80;;;;;;;17.96;56.85;99754.50;5137675;28;20015;-66
2021/06/15 05:03:55;;;;;;;8.60;1.70;;;;;;;18.02;57.02;99755.50;5133423;28;20429;-66
2021/06/15 05:06:21;;;;;;;2.72;1.45;;;;;;;18.23;56.18;99757.91;5131939;28;20023;-66
2021/06/15 05:09:03;;;;;;;7.50;1.70;;;;;;;18.17;56.22;99762.25;5132122;27;20077;-66
2021/06/15 05:11:34;;;;;;;5.22;1.63;;;;;;;17.99;56.37;99750.56;5128243;28;20027;-66
2021/06/15 05:14:02;;;;;;;5.72;1.75;;;;;;;18.00;56.80;99760.25;5133576;28;20031;-66
2021/06/15 05:16:31;;;;;;;6.85;2.13;;;;;;;18.06;56.71;99759.41;5131614;27;20028;-66
2021/06/15 05:19:01;;;;;;;2.45;1.55;;;;;;;18.11;56.27;99759.59;5132374;27;20015;-66
2021/06/15 05:21:34;;;;;;;6.50;2.42;;;;;;;18.15;56.57;99758.16;5126403;28;20320;-66
2021/06/15 05:24:17;;;;;;;5.00;1.63;;;;;;;18.57;55.24;99759.44;5131991;28;20284;-66
2021/06/15 05:26:42;;;;;;;4.50;1.80;;;;;;;19.05;53.95;99751.78;5130684;28;20031;-66
2021/06/15 05:29:08;;;;;;;6.68;1.38;;;;;;;19.26;53.48;99755.97;5131624;27;20095;-66
2021/06/15 05:31:33;;;;;;;4.38;1.65;;;;;;;19.28;52.91;99758.44;5132639;28;20027;-66
2021/06/15 05:33:58;;;;;;;3.85;1.55;;;;;;;19.61;52.95;99761.72;5131967;28;20031;-67
2021/06/15 05:36:24;;;;;;;3.03;1.42;;;;;;;20.04;51.57;99769.78;5131917;27;20027;-66
2021/06/15 05:38:49;;;;;;;4.10;1.10;;;;;;;20.20;50.34;99763.00;5135104;27;20027;-66
2021/06/15 05:41:15;;;;;;;5.97;1.70;;;;;;;20.04;50.81;99763.59;5129168;27;20024;-66
2021/06/15 05:43:40;;;;;;;3.90;1.88;;;;;;;19.99;51.37;99768.81;5119033;28;20073;-66
2021/06/15 05:46:06;;;;;;;10.07;1.40;;;;;;;19.94;51.37;99764.09;5118643;28;20046;-66
2021/06/15 05:48:31;;;;;;;6.20;1.67;;;;;;;20.30;51.16;99771.38;5121440;28;20028;-66
2021/06/15 05:50:56;;;;;;;6.20;1.73;;;;;;;20.54;50.48;99760.75;5131278;27;20031;-66
2021/06/15 05:53:22;;;;;;;3.30;1.42;;;;;;;20.56;49.73;99751.44;5132250;27;20038;-66
2021/06/15 05:55:49;;;;;;;6.78;1.42;;;;;;;20.73;49.20;99751.63;5132219;27;20032;-66
2021/06/15 05:58:14;;;;;;;5.68;1.55;;;;;;;20.84;49.58;99756.25;5124279;28;20054;-66
2021/06/15 06:00:40;;;;;;;5.88;1.45;;;;;;;20.85;49.61;99754.38;5119814;28;20028;-66
2021/06/15 06:03:06;;;;;;;10.98;2.38;;;;;;;20.61;50.01;99758.81;5118530;28;20054;-66
2021/06/15 06:08:16;;;;;;;4.32;1.90;;;;;;;20.06;50.21;99750.75;5117333;28;20069;-66
2021/06/15 06:10:42;;;;;;;1.77;1.20;;;;;;;20.04;50.88;99752.84;5117942;28;20023;-66
2021/06/15 06:13:11;;;;;;;4.68;1.48;;;;;;;20.15;50.96;99756.66;5118323;28;20352;-65
2021/06/15 06:15:37;;;;;;;3.78;1.50;;;;;;;20.38;50.10;99751.41;5116567;28;20140;-66
2021/06/15 06:18:08;;;;;;;7.80;1.67;;;;;;;20.51;50.15;99755.84;5117585;28;20268;-66
2021/06/15 06:20:35;;;;;;;5.15;1.23;;;;;;;20.61;49.63;99756.13;5118965;28;20034;-66
2021/06/15 06:23:00;;;;;;;1.75;1.05;;;;;;;20.74;49.37;99755.94;5104805;28;20356;-66
2021/06/15 06:25:29;;;;;;;1.95;1.30;;;;;;;21.05;49.11;99754.91;5117189;28;20070;-66
2021/06/15 06:27:54;;;;;;;6.63;1.40;;;;;;;20.89;48.43;99759.06;5118807;28;20020;-66
2021/06/15 06:30:20;;;;;;;7.32;1.30;;;;;;;21.07;48.13;99750.13;5116782;28;20270;-66
2021/06/15 06:32:46;;;;;;;2.10;1.20;;;;;;;21.14;48.42;99755.41;5117567;28;20032;-66
2021/06/15 06:35:12;;;;;;;3.20;1.35;;;;;;;20.91;48.89;99748.09;5117803;28;20035;-66
2021/06/15 06:37:37;;;;;;;2.45;1.33;;;;;;;20.90;49.17;99746.44;5116499;28;20031;-66
2021/06/15 06:40:04;;;;;;;3.40;1.50;;;;;;;20.70;49.27;99750.19;5117465;28;20027;-66
2021/06/15 06:42:30;;;;;;;3.67;1.50;;;;;;;20.42;49.18;99735.69;5116714;28;20076;-66
2021/06/15 06:44:55;;;;;;;3.28;1.30;;;;;;;20.26;49.52;99740.59;5116038;28;20043;-66
2021/06/15 06:47:20;;;;;;;4.65;1.40;;;;;;;20.35;49.58;99741.94;5118231;28;20035;-66
2021/06/15 06:49:46;;;;;;;8.95;1.90;;;;;;;20.31;50.67;99746.13;5116328;28;20046;-65
2021/06/15 06:52:11;;;;;;;9.90;1.70;;;;;;;20.22;50.76;99750.16;5117050;28;20032;-65
2021/06/15 06:54:37;;;;;;;2.83;1.17;;;;;;;20.15;51.27;99745.91;5122665;28;20038;-65
2021/06/15 06:57:03;;;;;;;5.63;1.40;;;;;;;20.35;50.87;99744.63;5123235;28;20217;-65
2021/06/15 06:59:28;;;;;;;4.88;1.20;;;;;;;20.66;49.73;99746.31;5115078;28;20055;-65
2021/06/15 07:01:53;;;;;;;6.78;1.85;;;;;;;20.89;49.26;99742.94;5117497;28;20020;-65
2021/06/15 07:04:19;;;;;;;9.30;1.75;;;;;;;21.10;49.57;99738.06;5115780;28;20054;-66
2021/06/15 07:06:44;;;;;;;2.88;1.10;;;;;;;21.13;49.42;99737.59;5116447;28;20099;-66
2021/06/15 07:09:10;;;;;;;3.05;1.30;;;;;;;21.50;47.68;99735.59;5115753;28;20026;-66
2021/06/15 07:11:35;;;;;;;4.05;1.50;;;;;;;21.42;46.94;99736.75;5116435;28;20084;-66
2021/06/15 07:14:01;;;;;;;3.75;1.52;;;;;;;21.59;46.10;99734.19;5117091;28;20088;-66
2021/06/15 07:16:26;;;;;;;2.63;1.30;;;;;;;21.65;46.13;99734.06;5121725;28;20058;-66
2021/06/15 07:18:52;;;;;;;5.97;1.30;;;;;;;21.74;45.76;99734.53;5122907;28;20221;-66
2021/06/15 07:21:17;;;;;;;5.20;1.33;;;;;;;21.71;46.23;99739.56;5116499;28;20027;-65
2021/06/15 07:23:43;;;;;;;6.03;1.58;;;;;;;21.96;46.35;99740.16;5116774;28;20028;-66
2021/06/15 07:26:08;;;;;;;6.43;1.35;;;;;;;22.28;45.31;99736.03;5115382;28;20031;-66
2021/06/15 07:28:34;;;;;;;4.35;1.20;;;;;;;22.53;44.39;99741.13;5116895;28;20362;-66
2021/06/15 07:31:00;;;;;;;2.47;1.20;;;;;;;22.43;44.19;99734.72;5115530;28;20032;-66
2021/06/15 07:33:25;;;;;;;7.07;1.30;;;;;;;22.51;43.80;99734.31;5116142;28;20088;-66
2021/06/15 07:35:51;;;;;;;8.50;2.70;;;;;;;22.67;43.90;99730.03;5117139;28;20024;-66
2021/06/15 07:38:16;;;;;;;6.30;1.60;;;;;;;22.65;43.54;99710.56;5114894;28;20038;-65
2021/06/15 07:40:42;;;;;;;4.85;1.50;;;;;;;22.65;43.27;99727.59;5116211;28;20036;-65
2021/06/15 07:43:07;;;;;;;18.60;2.17;;;;;;;22.76;44.21;99721.31;5116465;28;20012;-65
2021/06/15 07:45:36;;;;;;;7.25;1.55;;;;;;;22.98;43.52;99713.41;5115279;28;20344;-66
2021/06/15 07:48:02;;;;;;;3.63;1.45;;;;;;;22.91;43.25;99710.84;5117033;28;20023;-66
2021/06/15 07:50:28;;;;;;;3.90;1.23;;;;;;;22.87;43.01;99712.38;5115683;28;20043;-66
2021/06/15 07:52:53;;;;;;;4.38;1.10;;;;;;;22.61;44.15;99716.44;5117378;28;20197;-65
2021/06/15 07:55:19;;;;;;;2.80;1.40;;;;;;;22.92;43.45;99706.28;5122393;28;20225;-66
2021/06/15 07:57:47;;;;;;;3.20;1.00;;;;;;;22.99;43.58;99703.41;5120283;28;20334;-66
2021/06/15 08:00:13;;;;;;;5.72;1.15;;;;;;;22.98;43.28;99708.00;5105034;28;20056;-66
2021/06/15 08:02:40;;;;;;;7.03;1.50;;;;;;;22.83;43.48;99694.19;5101071;28;20036;-66
2021/06/15 08:05:06;;;;;;;4.20;1.30;;;;;;;22.87;42.94;99703.44;5099069;28;20047;-66
2021/06/15 08:07:31;;;;;;;8.70;1.40;;;;;;;22.97;42.87;99700.13;5104776;28;20024;-66
2021/06/15 08:09:57;;;;;;;6.30;1.70;;;;;;;23.14;43.14;99693.69;5104321;28;20321;-66
2021/06/15 08:12:22;;;;;;;6.95;1.40;;;;;;;22.99;42.50;99695.31;5104437;28;20069;-66
2021/06/15 08:14:48;;;;;;;2.92;1.60;;;;;;;22.82;42.67;99693.38;5104798;28;20050;-66
2021/06/15 08:17:14;;;;;;;1.70;1.00;;;;;;;22.58;43.77;99694.53;5108401;28;20020;-66
2021/06/15 08:19:40;;;;;;;5.50;2.00;;;;;;;22.67;43.36;99690.38;5106993;28;20294;-66
2021/06/15 08:22:06;;;;;;;3.47;1.50;;;;;;;22.58;43.79;99691.81;5104548;28;20040;-66
2021/06/15 08:24:32;;;;;;;5.38;1.27;;;;;;;22.54;43.33;99686.09;5105157;28;20039;-66
2021/06/15 08:26:57;;;;;;;4.43;1.15;;;;;;;22.58;44.43;99689.94;5104947;28;20023;-66
2021/06/15 08:29:23;;;;;;;4.25;1.50;;;;;;;22.46;44.71;99689.19;5100426;28;20058;-66
2021/06/15 08:31:48;;;;;;;8.13;1.65;;;;;;;22.35;44.37;99684.66;5100511;28;20332;-65
2021/06/15 08:34:14;;;;;;;3.13;2.13;;;;;;;22.42;43.65;99700.69;5106187;28;20052;-66
2021/06/15 08:36:39;;;;;;;2.03;1.40;;;;;;;22.43;43.80;99694.25;5104875;28;20031;-66
2021/06/15 08:39:06;;;;;;;3.80;1.52;;;;;;;22.50;44.44;99692.22;5102172;28;20194;-66
2021/06/15 08:41:32;;;;;;;2.88;1.80;;;;;;;22.39;44.19;99691.19;5105447;28;20217;-66
2021/06/15 08:43:58;;;;;;;2.88;1.40;;;;;;;22.31;44.58;99691.59;5104512;28;20322;-66
2021/06/15 08:46:24;;;;;;;3.47;1.40;;;;;;;22.36;44.92;99674.69;5104716;28;20039;-66
2021/06/15 08:48:49;;;;;;;6.57;2.17;;;;;;;22.61;45.19;99691.34;5105072;28;20166;-66
2021/06/15 08:51:15;;;;;;;3.05;1.52;;;;;;;22.84;44.37;99688.56;5104075;28;20031;-66
2021/06/15 08:53:40;;;;;;;3.28;1.52;;;;;;;22.78;43.56;99685.97;5100960;28;20264;-66
2021/06/15 08:56:33;;;;;;;3.53;1.50;;;;;;;22.80;44.53;99687.41;5100842;28;20222;-65
2021/06/15 08:59:17;;;;;;;4.05;1.60;;;;;;;22.44;44.96;99691.31;5100143;28;20035;-66
2021/06/15 09:01:52;;;;;;;2.42;1.50;;;;;;;22.60;44.51;99682.44;5100825;28;20317;-66
2021/06/15 09:04:18;;;;;;;1.73;1.40;;;;;;;22.78;44.41;99684.09;5100997;28;20052;-66
2021/06/15 09:06:44;;;;;;;1.98;1.55;;;;;;;22.81;44.28;99685.53;5101263;28;20028;-66
2021/06/15 09:09:10;;;;;;;4.68;2.33;;;;;;;23.03;44.25;99689.19;5100700;28;20031;-66
2021/06/15 09:11:47;;;;;;;2.67;1.67;;;;;;;22.95;44.13;99689.59;5101308;28;20023;-65
2021/06/15 09:14:13;;;;;;;3.58;1.60;;;;;;;22.85;43.52;99695.59;5100777;28;20035;-66
2021/06/15 09:16:44;;;;;;;2.95;1.50;;;;;;;22.82;43.66;99695.25;5101064;28;20032;-66
2021/06/15 09:19:23;;;;;;;2.30;1.60;;;;;;;22.70;43.15;99689.88;5100952;28;20111;-66
2021/06/15 09:21:50;;;;;;;4.10;1.60;;;;;;;22.66;43.77;99701.41;5099741;28;20085;-66
2021/06/15 09:24:20;;;;;;;6.68;1.70;;;;;;;22.78;43.81;99691.38;5100814;28;20046;-66
2021/06/15 09:27:03;;;;;;;5.35;1.50;;;;;;;22.82;44.00;99690.69;5100822;28;20038;-66
2021/06/15 09:29:35;;;;;;;4.63;2.10;;;;;;;22.65;43.26;99684.41;5100597;28;20073;-66
2021/06/15 09:32:01;;;;;;;4.57;2.33;;;;;;;22.55;44.07;99685.03;5102907;28;20039;-66
2021/06/15 09:34:26;;;;;;;6.85;2.45;;;;;;;22.68;44.06;99683.09;5104793;28;20040;-66
2021/06/15 09:36:52;;;;;;;4.85;1.70;;;;;;;22.56;44.48;99675.06;5104120;28;20032;-66
2021/06/15 09:39:18;;;;;;;2.60;1.65;;;;;;;22.59;44.14;99685.38;5103949;28;20044;-65
2021/06/15 09:41:46;;;;;;;2.30;1.80;;;;;;;22.48;44.30;99687.06;5105072;28;20024;-66
2021/06/15 09:44:25;;;;;;;4.60;1.90;;;;;;;22.61;44.33;99678.66;5103846;28;20036;-66
2021/06/15 09:46:56;;;;;;;3.97;1.83;;;;;;;22.53;44.28;99679.06;5103686;28;20255;-66
2021/06/15 09:49:33;;;;;;;3.65;1.80;;;;;;;22.56;44.19;99683.16;5104419;28;20103;-66
2021/06/15 09:52:12;;;;;;;19.63;2.58;;;;;;;22.53;43.68;99686.34;5103963;28;20028;-66
2021/06/15 09:54:41;;;;;;;3.22;1.60;;;;;;;22.64;43.99;99680.06;5104319;28;20028;-66
2021/06/15 09:57:10;;;;;;;6.85;1.77;;;;;;;22.72;43.77;99679.66;5104543;28;20059;-66
2021/06/15 09:59:36;;;;;;;3.58;1.50;;;;;;;22.95;43.23;99670.69;5103814;28;20039;-66
2021/06/15 10:02:02;;;;;;;3.83;1.60;;;;;;;23.02;42.82;99668.63;5104342;28;20067;-66
2021/06/15 10:04:28;;;;;;;3.92;1.60;;;;;;;23.18;42.64;99670.53;5103751;28;20107;-66
2021/06/15 10:06:54;;;;;;;2.00;1.40;;;;;;;23.32;41.44;99670.19;5104011;28;20332;-66
2021/06/15 10:09:28;;;;;;;1.88;1.42;;;;;;;23.42;41.52;99659.53;5103912;28;20036;-66
2021/06/15 10:11:56;;;;;;;2.45;1.40;;;;;;;23.42;42.65;99656.81;5104085;28;20055;-66
2021/06/15 10:14:22;;;;;;;5.05;1.73;;;;;;;23.70;41.11;99661.31;5103688;28;20044;-66
2021/06/15 10:16:49;;;;;;;7.10;1.65;;;;;;;23.92;40.78;99655.91;5104316;28;20232;-67
2021/06/15 10:19:14;;;;;;;6.60;1.67;;;;;;;24.01;38.99;99651.72;5103846;28;20057;-66
2021/06/15 10:21:40;;;;;;;4.03;1.30;;;;;;;23.95;39.73;99650.03;5103938;28;20043;-66
2021/06/15 10:24:07;;;;;;;1.58;1.48;;;;;;;24.11;39.57;99649.16;5103752;28;20031;-66
2021/06/15 10:26:33;;;;;;;3.47;1.40;;;;;;;24.19;38.20;99646.00;5103663;28;20044;-66
2021/06/15 10:28:59;;;;;;;4.20;2.22;;;;;;;24.27;39.55;99642.88;5103751;28;20095;-66
2021/06/15 10:31:30;;;;;;;6.57;1.67;;;;;;;24.30;38.49;99644.25;5103566;28;20226;-66
2021/06/15 10:33:56;;;;;;;5.45;1.25;;;;;;;24.45;37.60;99636.28;5103403;28;20321;-66
2021/06/15 10:36:37;;;;;;;1.73;1.40;;;;;;;24.62;36.57;99634.28;5103476;28;20016;-66
2021/06/15 10:39:05;;;;;;;3.85;1.70;;;;;;;24.69;36.98;99626.78;5103146;28;20044;-66
2021/06/15 10:41:31;;;;;;;2.70;1.27;;;;;;;24.80;37.28;99631.22;5103401;28;20326;-66
2021/06/15 10:43:58;;;;;;;2.90;1.20;;;;;;;24.73;36.75;99627.09;5102838;28;20055;-66
2021/06/15 10:46:36;;;;;;;2.60;1.50;;;;;;;24.72;37.01;99620.03;5105098;28;20042;-66
2021/06/15 10:49:22;;;;;;;2.50;1.40;;;;;;;25.05;36.78;99627.13;5103128;28;20109;-66
2021/06/15 10:51:55;;;;;;;3.13;1.30;;;;;;;24.94;35.80;99619.94;5102436;28;20089;-66
2021/06/15 10:54:40;;;;;;;2.80;2.33;;;;;;;25.08;36.34;99613.06;5103340;28;20030;-66
2021/06/15 10:57:28;;;;;;;4.90;1.50;;;;;;;24.98;37.45;99608.38;5101220;28;20337;-66
2021/06/15 10:59:57;;;;;;;4.28;1.30;;;;;;;24.90;36.95;99597.16;5106572;28;20039;-66
2021/06/15 11:02:22;;;;;;;4.80;1.80;;;;;;;24.58;39.13;99608.00;5107074;28;20035;-66
2021/06/15 11:04:48;;;;;;;3.30;0.90;;;;;;;24.72;35.79;99609.19;5105281;28;20058;-66
2021/06/15 11:07:26;;;;;;;6.10;1.30;;;;;;;25.03;35.59;99613.84;5106133;28;20225;-66
2021/06/15 11:09:52;;;;;;;1.23;1.10;;;;;;;25.14;34.95;99610.13;5106651;28;20031;-66
2021/06/15 11:12:19;;;;;;;3.03;1.75;;;;;;;25.10;33.22;99595.47;5106048;28;20240;-66
2021/06/15 11:15:14;;;;;;;2.90;1.10;;;;;;;25.12;34.42;99603.34;5105581;28;20139;-66
2021/06/15 11:17:45;;;;;;;4.38;0.90;;;;;;;24.74;35.88;99607.06;5106284;28;20396;-66
2021/06/15 11:20:11;;;;;;;1.58;1.17;;;;;;;24.58;35.86;99597.97;5105643;28;20108;-66
2021/06/15 11:22:36;;;;;;;2.55;1.20;;;;;;;24.74;36.30;99588.91;5104433;28;20027;-66
2021/06/15 11:25:03;;;;;;;1.42;1.10;;;;;;;24.94;37.12;99588.25;5107306;28;20321;-66
2021/06/15 11:27:29;;;;;;;4.25;1.15;;;;;;;24.83;36.67;99583.84;5106371;28;20035;-66
2021/06/15 11:30:12;;;;;;;1.20;1.10;;;;;;;24.88;36.62;99577.63;5105151;28;20555;-66
2021/06/15 11:32:52;;;;;;;1.63;1.40;;;;;;;25.19;37.37;99581.44;5101341;28;20226;-66
2021/06/15 11:35:18;;;;;;;3.58;1.00;;;;;;;25.25;36.40;99583.09;5104352;28;20059;-66
2021/06/15 11:37:47;;;;;;;1.38;1.25;;;;;;;24.93;35.47;99575.78;5105365;28;20039;-66
2021/06/15 11:40:18;;;;;;;2.80;1.08;;;;;;;25.09;36.62;99572.16;5102057;28;20023;-66
2021/06/15 11:42:43;;;;;;;1.25;1.15;;;;;;;25.39;36.71;99573.44;5101192;28;20024;-66
2021/06/15 11:45:18;;;;;;;5.32;1.30;;;;;;;25.17;36.37;99570.84;5102029;28;20101;-66
2021/06/15 11:47:52;;;;;;;6.90;1.00;;;;;;;25.17;36.25;99570.03;5107057;28;20065;-66